sensor_id;sensor_type;location;lat;lon;timestamp;pressure;altitude;pressure_sealevel;temperature;humidity
68320;BME280;55168;51.120;17.024;2024-01-07T00:00:00;100020;;;-3.1;100.0
68320;BME280;55168;51.120;17.024;2024-01-07T00:01:00;100020;;;-3.1;100.0
68320;BME280;55168;51.120;17.024;2024-01-07T00:02:00;100030;;;-3.1;100.0
68320;BME280;55168;51.120;17.024;2024-01-07T00:03:00;100020;;;-3.1;100.0
68320;BME280;55168;51.120;17.024;2024-01-07T00:04:00;100030;;;-3.1;100.0
68320;BME280;55168;51.120;17.024;2024-01-07T00:05:00;100030;;;-3.1;100.0
68320;BME280;55168;51.120;17.024;2024-01-07T00:06:00;100030;;;-3.1;100.0
68320;BME280;55168;51.120;17.024;2024-01-07T00:07:00;100020;;;-3.1;100.0
68320;BME280;55168;51.120;17.024;2024-01-07T00:08:00;100020;;;-3.1;100.0
68320;BME280;55168;51.120;17.024;2024-01-07T00:09:00;100020;;;-3.1;100.0
68320;BME280;55168;51.120;17.024;2024-01-07T00:10:00;100030;;;-3.1;100.0
68320;BME280;55168;51.120;17.024;2024-01-07T00:11:00;100030;;;-3.1;100.0
68320;BME280;55168;51.120;17.024;2024-01-07T00:12:00;100030;;;-3.2;100.0
68320;BME280;55168;51.120;17.024;2024-01-07T00:13:00;100050;;;-3.3;100.0
68320;BME280;55168;51.120;17.024;2024-01-07T00:14:00;100050;;;-3.3;100.0
68320;BME280;55168;51.120;17.024;2024-01-07T00:15:00;100040;;;-3.3;100.0
68320;BME280;55168;51.120;17.024;2024-01-07T00:16:00;100030;;;-3.4;100.0
68320;BME280;55168;51.120;17.024;2024-01-07T00:17:00;100020;;;-3.4;100.0
68320;BME280;55168;51.120;17.024;2024-01-07T00:18:00;100040;;;-3.4;100.0
68320;BME280;55168;51.120;17.024;2024-01-07T00:19:00;100030;;;-3.5;100.0
68320;BME280;55168;51.120;17.024;2024-01-07T00:20:00;100030;;;-3.5;100.0
68320;BME280;55168;51.120;17.024;2024-01-07T00:21:00;100030;;;-3.5;100.0
68320;BME280;55168;51.120;17.024;2024-01-07T00:22:00;100030;;;-3.5;100.0
68320;BME280;55168;51.120;17.024;2024-01-07T00:23:00;100020;;;-3.5;100.0
68320;BME280;55168;51.120;17.024;2024-01-07T00:24:00;100030;;;-3.5;100.0
68320;BME280;55168;51.120;17.024;2024-01-07T00:25:00;100030;;;-3.5;100.0
68320;BME280;55168;51.120;17.024;2024-01-07T00:26:00;100040;;;-3.5;100.0
68320;BME280;55168;51.120;17.024;2024-01-07T00:27:00;100030;;;-3.6;100.0
68320;BME280;55168;51.120;17.024;2024-01-07T00:28:00;100030;;;-3.6;100.0
68320;BME280;55168;51.120;17.024;2024-01-07T00:29:00;100030;;;-3.6;100.0
68320;BME280;55168;51.120;17.024;2024-01-07T00:30:00;100030;;;-3.6;100.0
68320;BME280;55168;51.120;17.024;2024-01-07T00:31:00;100030;;;-3.6;100.0
68320;BME280;55168;51.120;17.024;2024-01-07T00:32:00;100030;;;-3.6;100.0
68320;BME280;55168;51.120;17.024;2024-01-07T00:33:00;100040;;;-3.7;100.0
68320;BME280;55168;51.120;17.024;2024-01-07T00:34:00;100040;;;-3.7;100.0
68320;BME280;55168;51.120;17.024;2024-01-07T00:35:00;100030;;;-3.7;100.0
68320;BME280;55168;51.120;17.024;2024-01-07T00:36:00;100030;;;-3.7;100.0
68320;BME280;55168;51.120;17.024;2024-01-07T00:37:00;100030;;;-3.6;100.0
68320;BME280;55168;51.120;17.024;2024-01-07T00:38:00;100030;;;-3.6;100.0
68320;BME280;55168;51.120;17.024;2024-01-07T00:39:00;100030;;;-3.6;100.0
68320;BME280;55168;51.120;17.024;2024-01-07T00:40:00;100030;;;-3.7;100.0
68320;BME280;55168;51.120;17.024;2024-01-07T00:41:00;100030;;;-3.7;100.0
68320;BME280;55168;51.120;17.024;2024-01-07T00:42:00;100030;;;-3.7;100.0
68320;BME280;55168;51.120;17.024;2024-01-07T00:43:00;100030;;;-3.7;100.0
68320;BME280;55168;51.120;17.024;2024-01-07T00:44:00;100040;;;-3.7;100.0
68320;BME280;55168;51.120;17.024;2024-01-07T00:45:00;100030;;;-3.7;100.0
68320;BME280;55168;51.120;17.024;2024-01-07T00:46:00;100030;;;-3.7;100.0
68320;BME280;55168;51.120;17.024;2024-01-07T00:47:00;100030;;;-3.7;100.0
68320;BME280;55168;51.120;17.024;2024-01-07T00:48:00;100030;;;-3.7;100.0
68320;BME280;55168;51.120;17.024;2024-01-07T00:49:00;100030;;;-3.7;100.0
68320;BME280;55168;51.120;17.024;2024-01-07T00:50:00;100030;;;-3.7;100.0
68320;BME280;55168;51.120;17.024;2024-01-07T00:51:00;100030;;;-3.7;100.0
68320;BME280;55168;51.120;17.024;2024-01-07T00:52:00;100030;;;-3.7;100.0
68320;BME280;55168;51.120;17.024;2024-01-07T00:53:00;100030;;;-3.7;100.0
68320;BME280;55168;51.120;17.024;2024-01-07T00:54:00;100030;;;-3.7;100.0
68320;BME280;55168;51.120;17.024;2024-01-07T00:55:00;100030;;;-3.8;100.0
68320;BME280;55168;51.120;17.024;2024-01-07T00:56:00;100030;;;-3.8;100.0
68320;BME280;55168;51.120;17.024;2024-01-07T00:57:00;100040;;;-3.8;100.0
68320;BME280;55168;51.120;17.024;2024-01-07T00:58:00;100040;;;-3.8;100.0
68320;BME280;55168;51.120;17.024;2024-01-07T00:59:00;100040;;;-3.8;100.0
68320;BME280;55168;51.120;17.024;2024-01-07T01:00:00;100030;;;-3.8;100.0
68320;BME280;55168;51.120;17.024;2024-01-07T01:01:00;100030;;;-3.8;100.0
68320;BME280;55168;51.120;17.024;2024-01-07T01:02:00;100040;;;-3.8;100.0
68320;BME280;55168;51.120;17.024;2024-01-07T01:03:00;100040;;;-3.8;100.0
68320;BME280;55168;51.120;17.024;2024-01-07T01:04:00;100050;;;-3.8;100.0
68320;BME280;55168;51.120;17.024;2024-01-07T01:05:00;100040;;;-3.8;100.0
68320;BME280;55168;51.120;17.024;2024-01-07T01:06:00;100040;;;-3.8;100.0
68320;BME280;55168;51.120;17.024;2024-01-07T01:07:00;100040;;;-3.9;100.0
68320;BME280;55168;51.120;17.024;2024-01-07T01:08:00;100050;;;-3.8;100.0
68320;BME280;55168;51.120;17.024;2024-01-07T01:09:00;100050;;;-3.9;100.0
68320;BME280;55168;51.120;17.024;2024-01-07T01:10:00;100050;;;-3.9;100.0
68320;BME280;55168;51.120;17.024;2024-01-07T01:11:00;100050;;;-3.9;100.0
68320;BME280;55168;51.120;17.024;2024-01-07T01:12:00;100050;;;-3.9;100.0
68320;BME280;55168;51.120;17.024;2024-01-07T01:13:00;100050;;;-3.8;100.0
68320;BME280;55168;51.120;17.024;2024-01-07T01:14:00;100050;;;-3.8;100.0
68320;BME280;55168;51.120;17.024;2024-01-07T01:15:00;100050;;;-3.8;100.0
68320;BME280;55168;51.120;17.024;2024-01-07T01:16:00;100050;;;-3.8;100.0
68320;BME280;55168;51.120;17.024;2024-01-07T01:17:00;100050;;;-3.8;100.0
68320;BME280;55168;51.120;17.024;2024-01-07T01:18:00;100050;;;-3.8;100.0
68320;BME280;55168;51.120;17.024;2024-01-07T01:19:00;100050;;;-3.8;100.0
68320;BME280;55168;51.120;17.024;2024-01-07T01:20:00;100050;;;-3.8;100.0
68320;BME280;55168;51.120;17.024;2024-01-07T01:21:00;100060;;;-3.8;100.0
68320;BME280;55168;51.120;17.024;2024-01-07T01:22:00;100060;;;-3.8;100.0
68320;BME280;55168;51.120;17.024;2024-01-07T01:23:00;100050;;;-3.9;100.0
68320;BME280;55168;51.120;17.024;2024-01-07T01:24:00;100050;;;-3.8;100.0
68320;BME280;55168;51.120;17.024;2024-01-07T01:25:00;100060;;;-3.8;100.0
68320;BME280;55168;51.120;17.024;2024-01-07T01:26:00;100060;;;-3.8;100.0
68320;BME280;55168;51.120;17.024;2024-01-07T01:27:00;100060;;;-3.9;100.0
68320;BME280;55168;51.120;17.024;2024-01-07T01:28:00;100070;;;-3.9;100.0
68320;BME280;55168;51.120;17.024;2024-01-07T01:29:00;100070;;;-3.9;100.0
68320;BME280;55168;51.120;17.024;2024-01-07T01:30:00;100070;;;-3.9;100.0
68320;BME280;55168;51.120;17.024;2024-01-07T01:31:00;100070;;;-3.9;100.0
68320;BME280;55168;51.120;17.024;2024-01-07T01:32:00;100070;;;-3.8;100.0
68320;BME280;55168;51.120;17.024;2024-01-07T01:33:00;100070;;;-3.8;100.0
68320;BME280;55168;51.120;17.024;2024-01-07T01:34:00;100060;;;-3.8;100.0
68320;BME280;55168;51.120;17.024;2024-01-07T01:35:00;100060;;;-3.7;100.0
68320;BME280;55168;51.120;17.024;2024-01-07T01:36:03;100060;;;-3.7;100.0
68320;BME280;55168;51.120;17.024;2024-01-07T01:37:00;100070;;;-3.7;100.0
68320;BME280;55168;51.120;17.024;2024-01-07T01:38:00;100070;;;-3.7;100.0
68320;BME280;55168;51.120;17.024;2024-01-07T01:39:00;100060;;;-3.7;100.0
68320;BME280;55168;51.120;17.024;2024-01-07T01:40:00;100060;;;-3.7;100.0
68320;BME280;55168;51.120;17.024;2024-01-07T01:41:00;100070;;;-3.7;100.0
68320;BME280;55168;51.120;17.024;2024-01-07T01:42:00;100060;;;-3.7;100.0
68320;BME280;55168;51.120;17.024;2024-01-07T01:43:00;100070;;;-3.7;100.0
68320;BME280;55168;51.120;17.024;2024-01-07T01:44:00;100060;;;-3.6;100.0
68320;BME280;55168;51.120;17.024;2024-01-07T01:45:00;100070;;;-3.6;100.0
68320;BME280;55168;51.120;17.024;2024-01-07T01:46:01;100070;;;-3.6;100.0
68320;BME280;55168;51.120;17.024;2024-01-07T01:47:00;100070;;;-3.7;100.0
68320;BME280;55168;51.120;17.024;2024-01-07T01:48:00;100060;;;-3.7;100.0
68320;BME280;55168;51.120;17.024;2024-01-07T01:49:00;100060;;;-3.6;100.0
68320;BME280;55168;51.120;17.024;2024-01-07T01:50:00;100050;;;-3.6;100.0
68320;BME280;55168;51.120;17.024;2024-01-07T01:51:00;100070;;;-3.6;100.0
68320;BME280;55168;51.120;17.024;2024-01-07T01:52:00;100060;;;-3.7;100.0
68320;BME280;55168;51.120;17.024;2024-01-07T01:53:00;100070;;;-3.7;100.0
68320;BME280;55168;51.120;17.024;2024-01-07T01:54:00;100060;;;-3.7;100.0
68320;BME280;55168;51.120;17.024;2024-01-07T01:55:00;100070;;;-3.6;100.0
68320;BME280;55168;51.120;17.024;2024-01-07T01:56:00;100060;;;-3.6;100.0
68320;BME280;55168;51.120;17.024;2024-01-07T01:57:00;100060;;;-3.6;100.0
68320;BME280;55168;51.120;17.024;2024-01-07T01:58:00;100070;;;-3.6;100.0
68320;BME280;55168;51.120;17.024;2024-01-07T01:59:00;100070;;;-3.7;100.0
68320;BME280;55168;51.120;17.024;2024-01-07T02:00:01;100070;;;-3.7;100.0
68320;BME280;55168;51.120;17.024;2024-01-07T02:01:00;100080;;;-3.7;100.0
68320;BME280;55168;51.120;17.024;2024-01-07T02:02:00;100070;;;-3.7;100.0
68320;BME280;55168;51.120;17.024;2024-01-07T02:03:00;100070;;;-3.7;100.0
68320;BME280;55168;51.120;17.024;2024-01-07T02:04:00;100070;;;-3.7;100.0
68320;BME280;55168;51.120;17.024;2024-01-07T02:05:00;100070;;;-3.7;100.0
68320;BME280;55168;51.120;17.024;2024-01-07T02:06:00;100070;;;-3.7;100.0
68320;BME280;55168;51.120;17.024;2024-01-07T02:07:00;100070;;;-3.7;100.0
68320;BME280;55168;51.120;17.024;2024-01-07T02:08:00;100070;;;-3.8;100.0
68320;BME280;55168;51.120;17.024;2024-01-07T02:09:00;100080;;;-3.8;100.0
68320;BME280;55168;51.120;17.024;2024-01-07T02:10:00;100070;;;-3.8;100.0
68320;BME280;55168;51.120;17.024;2024-01-07T02:11:13;100070;;;-3.8;100.0
68320;BME280;55168;51.120;17.024;2024-01-07T02:12:03;100080;;;-3.8;100.0
68320;BME280;55168;51.120;17.024;2024-01-07T02:13:00;100080;;;-3.8;100.0
68320;BME280;55168;51.120;17.024;2024-01-07T02:14:00;100070;;;-3.8;100.0
68320;BME280;55168;51.120;17.024;2024-01-07T02:15:00;100070;;;-3.8;100.0
68320;BME280;55168;51.120;17.024;2024-01-07T02:16:00;100070;;;-3.8;100.0
68320;BME280;55168;51.120;17.024;2024-01-07T02:17:00;100070;;;-3.8;100.0
68320;BME280;55168;51.120;17.024;2024-01-07T02:18:00;100080;;;-3.8;100.0
68320;BME280;55168;51.120;17.024;2024-01-07T02:19:00;100080;;;-3.9;100.0
68320;BME280;55168;51.120;17.024;2024-01-07T02:20:00;100070;;;-3.9;100.0
68320;BME280;55168;51.120;17.024;2024-01-07T02:21:00;100070;;;-3.9;100.0
68320;BME280;55168;51.120;17.024;2024-01-07T02:22:00;100080;;;-4.0;100.0
68320;BME280;55168;51.120;17.024;2024-01-07T02:23:00;100090;;;-4.0;100.0
68320;BME280;55168;51.120;17.024;2024-01-07T02:24:03;100080;;;-4.0;100.0
68320;BME280;55168;51.120;17.024;2024-01-07T02:25:00;100070;;;-4.0;100.0
68320;BME280;55168;51.120;17.024;2024-01-07T02:26:00;100070;;;-4.0;100.0
68320;BME280;55168;51.120;17.024;2024-01-07T02:27:00;100070;;;-4.1;100.0
68320;BME280;55168;51.120;17.024;2024-01-07T02:28:00;100080;;;-4.1;100.0
68320;BME280;55168;51.120;17.024;2024-01-07T02:29:00;100070;;;-4.1;100.0
68320;BME280;55168;51.120;17.024;2024-01-07T02:30:00;100070;;;-4.1;100.0
68320;BME280;55168;51.120;17.024;2024-01-07T02:31:00;100080;;;-4.1;100.0
68320;BME280;55168;51.120;17.024;2024-01-07T02:32:00;100080;;;-4.1;100.0
68320;BME280;55168;51.120;17.024;2024-01-07T02:33:01;100070;;;-4.1;100.0
68320;BME280;55168;51.120;17.024;2024-01-07T02:34:00;100080;;;-4.1;100.0
68320;BME280;55168;51.120;17.024;2024-01-07T02:35:00;100070;;;-4.1;100.0
68320;BME280;55168;51.120;17.024;2024-01-07T02:36:00;100080;;;-4.1;100.0
68320;BME280;55168;51.120;17.024;2024-01-07T02:37:00;100080;;;-4.1;100.0
68320;BME280;55168;51.120;17.024;2024-01-07T02:38:00;100080;;;-4.1;100.0
68320;BME280;55168;51.120;17.024;2024-01-07T02:39:00;100080;;;-4.1;100.0
68320;BME280;55168;51.120;17.024;2024-01-07T02:40:00;100080;;;-4.1;100.0
68320;BME280;55168;51.120;17.024;2024-01-07T02:41:00;100080;;;-4.1;100.0
68320;BME280;55168;51.120;17.024;2024-01-07T02:42:00;100070;;;-4.1;100.0
68320;BME280;55168;51.120;17.024;2024-01-07T02:43:00;100080;;;-4.1;100.0
68320;BME280;55168;51.120;17.024;2024-01-07T02:44:00;100080;;;-4.1;100.0
68320;BME280;55168;51.120;17.024;2024-01-07T02:45:00;100080;;;-4.1;100.0
68320;BME280;55168;51.120;17.024;2024-01-07T02:46:00;100080;;;-4.1;100.0
68320;BME280;55168;51.120;17.024;2024-01-07T02:47:00;100070;;;-4.1;100.0
68320;BME280;55168;51.120;17.024;2024-01-07T02:48:00;100080;;;-4.1;100.0
68320;BME280;55168;51.120;17.024;2024-01-07T02:49:00;100070;;;-4.2;100.0
68320;BME280;55168;51.120;17.024;2024-01-07T02:50:00;100090;;;-4.1;100.0
68320;BME280;55168;51.120;17.024;2024-01-07T02:51:00;100080;;;-4.2;100.0
68320;BME280;55168;51.120;17.024;2024-01-07T02:52:00;100080;;;-4.2;100.0
68320;BME280;55168;51.120;17.024;2024-01-07T02:53:00;100080;;;-4.2;100.0
68320;BME280;55168;51.120;17.024;2024-01-07T02:54:00;100080;;;-4.2;100.0
68320;BME280;55168;51.120;17.024;2024-01-07T02:55:00;100080;;;-4.2;100.0
68320;BME280;55168;51.120;17.024;2024-01-07T02:56:00;100080;;;-4.2;100.0
68320;BME280;55168;51.120;17.024;2024-01-07T02:57:00;100080;;;-4.2;100.0
68320;BME280;55168;51.120;17.024;2024-01-07T02:58:00;100090;;;-4.1;100.0
68320;BME280;55168;51.120;17.024;2024-01-07T02:59:00;100090;;;-4.3;100.0
68320;BME280;55168;51.120;17.024;2024-01-07T03:00:00;100080;;;-4.3;100.0
68320;BME280;55168;51.120;17.024;2024-01-07T03:01:00;100090;;;-4.3;100.0
68320;BME280;55168;51.120;17.024;2024-01-07T03:02:00;100090;;;-4.3;100.0
68320;BME280;55168;51.120;17.024;2024-01-07T03:03:00;100090;;;-4.3;100.0
68320;BME280;55168;51.120;17.024;2024-01-07T03:04:00;100090;;;-4.3;100.0
68320;BME280;55168;51.120;17.024;2024-01-07T03:05:00;100090;;;-4.3;100.0
68320;BME280;55168;51.120;17.024;2024-01-07T03:06:00;100100;;;-4.3;100.0
68320;BME280;55168;51.120;17.024;2024-01-07T03:07:00;100090;;;-4.3;100.0
68320;BME280;55168;51.120;17.024;2024-01-07T03:08:00;100090;;;-4.3;100.0
68320;BME280;55168;51.120;17.024;2024-01-07T03:09:00;100090;;;-4.2;100.0
68320;BME280;55168;51.120;17.024;2024-01-07T03:10:00;100090;;;-4.3;100.0
68320;BME280;55168;51.120;17.024;2024-01-07T03:11:04;100100;;;-4.3;100.0
68320;BME280;55168;51.120;17.024;2024-01-07T03:12:00;100090;;;-4.4;100.0
68320;BME280;55168;51.120;17.024;2024-01-07T03:13:00;100100;;;-4.4;100.0
68320;BME280;55168;51.120;17.024;2024-01-07T03:14:00;100090;;;-4.4;100.0
68320;BME280;55168;51.120;17.024;2024-01-07T03:15:00;100090;;;-4.4;100.0
68320;BME280;55168;51.120;17.024;2024-01-07T03:16:00;100100;;;-4.3;100.0
68320;BME280;55168;51.120;17.024;2024-01-07T03:17:00;100090;;;-4.3;100.0
68320;BME280;55168;51.120;17.024;2024-01-07T03:18:00;100090;;;-4.3;100.0
68320;BME280;55168;51.120;17.024;2024-01-07T03:19:00;100090;;;-4.4;100.0
68320;BME280;55168;51.120;17.024;2024-01-07T03:20:00;100090;;;-4.3;100.0
68320;BME280;55168;51.120;17.024;2024-01-07T03:21:00;100090;;;-4.3;100.0
68320;BME280;55168;51.120;17.024;2024-01-07T03:22:00;100100;;;-4.3;100.0
68320;BME280;55168;51.120;17.024;2024-01-07T03:23:00;100090;;;-4.4;100.0
68320;BME280;55168;51.120;17.024;2024-01-07T03:24:00;100090;;;-4.3;100.0
68320;BME280;55168;51.120;17.024;2024-01-07T03:25:00;100090;;;-4.3;100.0
68320;BME280;55168;51.120;17.024;2024-01-07T03:26:00;100090;;;-4.3;100.0
68320;BME280;55168;51.120;17.024;2024-01-07T03:27:00;100090;;;-4.3;100.0
68320;BME280;55168;51.120;17.024;2024-01-07T03:28:00;100090;;;-4.2;100.0
68320;BME280;55168;51.120;17.024;2024-01-07T03:29:00;100090;;;-4.2;100.0
68320;BME280;55168;51.120;17.024;2024-01-07T03:30:00;100090;;;-4.2;100.0
68320;BME280;55168;51.120;17.024;2024-01-07T03:31:03;100090;;;-4.3;100.0
68320;BME280;55168;51.120;17.024;2024-01-07T03:32:00;100100;;;-4.3;100.0
68320;BME280;55168;51.120;17.024;2024-01-07T03:33:00;100100;;;-4.3;100.0
68320;BME280;55168;51.120;17.024;2024-01-07T03:34:00;100100;;;-4.3;100.0
68320;BME280;55168;51.120;17.024;2024-01-07T03:35:00;100100;;;-4.3;100.0
68320;BME280;55168;51.120;17.024;2024-01-07T03:36:00;100100;;;-4.4;100.0
68320;BME280;55168;51.120;17.024;2024-01-07T03:37:00;100100;;;-4.4;100.0
68320;BME280;55168;51.120;17.024;2024-01-07T03:38:00;100090;;;-4.4;100.0
68320;BME280;55168;51.120;17.024;2024-01-07T03:39:00;100100;;;-4.4;100.0
68320;BME280;55168;51.120;17.024;2024-01-07T03:40:00;100100;;;-4.4;100.0
68320;BME280;55168;51.120;17.024;2024-01-07T03:41:00;100100;;;-4.4;100.0
68320;BME280;55168;51.120;17.024;2024-01-07T03:42:00;100110;;;-4.3;100.0
68320;BME280;55168;51.120;17.024;2024-01-07T03:43:00;100110;;;-4.3;100.0
68320;BME280;55168;51.120;17.024;2024-01-07T03:44:00;100100;;;-4.3;100.0
68320;BME280;55168;51.120;17.024;2024-01-07T03:45:00;100110;;;-4.2;100.0
68320;BME280;55168;51.120;17.024;2024-01-07T03:46:00;100100;;;-4.2;100.0
68320;BME280;55168;51.120;17.024;2024-01-07T03:47:00;100110;;;-4.2;100.0
68320;BME280;55168;51.120;17.024;2024-01-07T03:48:00;100110;;;-4.1;100.0
68320;BME280;55168;51.120;17.024;2024-01-07T03:49:00;100110;;;-4.1;100.0
68320;BME280;55168;51.120;17.024;2024-01-07T03:50:00;100110;;;-4.1;100.0
68320;BME280;55168;51.120;17.024;2024-01-07T03:51:00;100110;;;-4.0;100.0
68320;BME280;55168;51.120;17.024;2024-01-07T03:52:00;100120;;;-4.0;100.0
68320;BME280;55168;51.120;17.024;2024-01-07T03:53:00;100120;;;-4.0;100.0
68320;BME280;55168;51.120;17.024;2024-01-07T03:54:00;100120;;;-4.0;100.0
68320;BME280;55168;51.120;17.024;2024-01-07T03:55:00;100130;;;-4.0;100.0
68320;BME280;55168;51.120;17.024;2024-01-07T03:56:00;100120;;;-4.0;100.0
68320;BME280;55168;51.120;17.024;2024-01-07T03:57:00;100130;;;-3.9;100.0
68320;BME280;55168;51.120;17.024;2024-01-07T03:58:00;100120;;;-3.9;100.0
68320;BME280;55168;51.120;17.024;2024-01-07T03:59:00;100120;;;-3.9;100.0
68320;BME280;55168;51.120;17.024;2024-01-07T04:00:00;100120;;;-3.8;100.0
68320;BME280;55168;51.120;17.024;2024-01-07T04:01:00;100120;;;-3.9;100.0
68320;BME280;55168;51.120;17.024;2024-01-07T04:02:00;100120;;;-3.8;100.0
68320;BME280;55168;51.120;17.024;2024-01-07T04:03:00;100120;;;-3.8;100.0
68320;BME280;55168;51.120;17.024;2024-01-07T04:04:00;100120;;;-3.8;100.0
68320;BME280;55168;51.120;17.024;2024-01-07T04:05:00;100120;;;-3.8;100.0
68320;BME280;55168;51.120;17.024;2024-01-07T04:06:00;100120;;;-3.8;100.0
68320;BME280;55168;51.120;17.024;2024-01-07T04:07:00;100120;;;-3.8;100.0
68320;BME280;55168;51.120;17.024;2024-01-07T04:08:00;100120;;;-3.8;100.0
68320;BME280;55168;51.120;17.024;2024-01-07T04:09:00;100120;;;-3.8;100.0
68320;BME280;55168;51.120;17.024;2024-01-07T04:10:00;100120;;;-3.8;100.0
68320;BME280;55168;51.120;17.024;2024-01-07T04:11:01;100120;;;-3.8;100.0
68320;BME280;55168;51.120;17.024;2024-01-07T04:12:00;100130;;;-3.8;100.0
68320;BME280;55168;51.120;17.024;2024-01-07T04:13:00;100120;;;-3.8;100.0
68320;BME280;55168;51.120;17.024;2024-01-07T04:14:00;100120;;;-3.8;100.0
68320;BME280;55168;51.120;17.024;2024-01-07T04:15:00;100130;;;-3.8;100.0
68320;BME280;55168;51.120;17.024;2024-01-07T04:16:00;100130;;;-3.8;100.0
68320;BME280;55168;51.120;17.024;2024-01-07T04:17:00;100130;;;-3.8;100.0
68320;BME280;55168;51.120;17.024;2024-01-07T04:18:01;100130;;;-3.8;100.0
68320;BME280;55168;51.120;17.024;2024-01-07T04:19:00;100130;;;-3.8;100.0
68320;BME280;55168;51.120;17.024;2024-01-07T04:20:00;100120;;;-3.8;100.0
68320;BME280;55168;51.120;17.024;2024-01-07T04:21:00;100120;;;-3.8;100.0
68320;BME280;55168;51.120;17.024;2024-01-07T04:22:00;100130;;;-3.8;100.0
68320;BME280;55168;51.120;17.024;2024-01-07T04:23:00;100130;;;-3.8;100.0
68320;BME280;55168;51.120;17.024;2024-01-07T04:24:00;100130;;;-3.7;100.0
68320;BME280;55168;51.120;17.024;2024-01-07T04:25:00;100130;;;-3.8;100.0
68320;BME280;55168;51.120;17.024;2024-01-07T04:26:00;100130;;;-3.7;100.0
68320;BME280;55168;51.120;17.024;2024-01-07T04:27:00;100110;;;-3.7;100.0
68320;BME280;55168;51.120;17.024;2024-01-07T04:28:00;100130;;;-3.7;100.0
68320;BME280;55168;51.120;17.024;2024-01-07T04:29:00;100130;;;-3.7;100.0
68320;BME280;55168;51.120;17.024;2024-01-07T04:30:00;100130;;;-3.8;100.0
68320;BME280;55168;51.120;17.024;2024-01-07T04:31:00;100130;;;-3.8;100.0
68320;BME280;55168;51.120;17.024;2024-01-07T04:32:00;100130;;;-3.8;100.0
68320;BME280;55168;51.120;17.024;2024-01-07T04:33:00;100130;;;-3.8;100.0
68320;BME280;55168;51.120;17.024;2024-01-07T04:34:00;100140;;;-3.8;100.0
68320;BME280;55168;51.120;17.024;2024-01-07T04:35:00;100140;;;-3.8;100.0
68320;BME280;55168;51.120;17.024;2024-01-07T04:36:00;100130;;;-3.9;100.0
68320;BME280;55168;51.120;17.024;2024-01-07T04:37:00;100140;;;-3.9;100.0
68320;BME280;55168;51.120;17.024;2024-01-07T04:38:00;100140;;;-3.9;100.0
68320;BME280;55168;51.120;17.024;2024-01-07T04:39:00;100130;;;-3.9;100.0
68320;BME280;55168;51.120;17.024;2024-01-07T04:40:00;100130;;;-3.9;100.0
68320;BME280;55168;51.120;17.024;2024-01-07T04:41:00;100130;;;-3.9;100.0
68320;BME280;55168;51.120;17.024;2024-01-07T04:42:00;100130;;;-3.9;100.0
68320;BME280;55168;51.120;17.024;2024-01-07T04:43:00;100140;;;-3.9;100.0
68320;BME280;55168;51.120;17.024;2024-01-07T04:44:00;100140;;;-3.9;100.0
68320;BME280;55168;51.120;17.024;2024-01-07T04:45:00;100140;;;-4.0;100.0
68320;BME280;55168;51.120;17.024;2024-01-07T04:46:00;100140;;;-3.9;100.0
68320;BME280;55168;51.120;17.024;2024-01-07T04:47:00;100140;;;-3.9;100.0
68320;BME280;55168;51.120;17.024;2024-01-07T04:48:00;100140;;;-3.9;100.0
68320;BME280;55168;51.120;17.024;2024-01-07T04:49:00;100140;;;-4.0;100.0
68320;BME280;55168;51.120;17.024;2024-01-07T04:50:00;100140;;;-4.0;100.0
68320;BME280;55168;51.120;17.024;2024-01-07T04:51:00;100140;;;-4.0;100.0
68320;BME280;55168;51.120;17.024;2024-01-07T04:52:00;100140;;;-4.0;100.0
68320;BME280;55168;51.120;17.024;2024-01-07T04:53:00;100140;;;-3.9;100.0
68320;BME280;55168;51.120;17.024;2024-01-07T04:54:00;100140;;;-4.0;100.0
68320;BME280;55168;51.120;17.024;2024-01-07T04:55:00;100140;;;-4.0;100.0
68320;BME280;55168;51.120;17.024;2024-01-07T04:56:00;100140;;;-4.0;100.0
68320;BME280;55168;51.120;17.024;2024-01-07T04:57:00;100140;;;-4.0;100.0
68320;BME280;55168;51.120;17.024;2024-01-07T04:58:00;100140;;;-4.0;100.0
68320;BME280;55168;51.120;17.024;2024-01-07T04:59:00;100150;;;-3.9;100.0
68320;BME280;55168;51.120;17.024;2024-01-07T05:00:00;100140;;;-3.9;100.0
68320;BME280;55168;51.120;17.024;2024-01-07T05:01:00;100150;;;-3.9;100.0
68320;BME280;55168;51.120;17.024;2024-01-07T05:02:00;100150;;;-3.9;100.0
68320;BME280;55168;51.120;17.024;2024-01-07T05:03:00;100150;;;-3.9;100.0
68320;BME280;55168;51.120;17.024;2024-01-07T05:04:00;100150;;;-3.9;100.0
68320;BME280;55168;51.120;17.024;2024-01-07T05:05:00;100150;;;-4.0;100.0
68320;BME280;55168;51.120;17.024;2024-01-07T05:06:00;100150;;;-4.0;100.0
68320;BME280;55168;51.120;17.024;2024-01-07T05:07:00;100150;;;-4.0;100.0
68320;BME280;55168;51.120;17.024;2024-01-07T05:08:00;100150;;;-4.0;100.0
68320;BME280;55168;51.120;17.024;2024-01-07T05:09:00;100150;;;-4.0;100.0
68320;BME280;55168;51.120;17.024;2024-01-07T05:10:00;100150;;;-4.1;100.0
68320;BME280;55168;51.120;17.024;2024-01-07T05:11:00;100150;;;-4.1;100.0
68320;BME280;55168;51.120;17.024;2024-01-07T05:12:00;100150;;;-4.0;100.0
68320;BME280;55168;51.120;17.024;2024-01-07T05:13:00;100150;;;-4.0;100.0
68320;BME280;55168;51.120;17.024;2024-01-07T05:14:00;100170;;;-4.0;100.0
68320;BME280;55168;51.120;17.024;2024-01-07T05:15:00;100160;;;-4.1;100.0
68320;BME280;55168;51.120;17.024;2024-01-07T05:16:00;100170;;;-4.1;100.0
68320;BME280;55168;51.120;17.024;2024-01-07T05:17:00;100170;;;-4.1;100.0
68320;BME280;55168;51.120;17.024;2024-01-07T05:18:00;100160;;;-4.1;100.0
68320;BME280;55168;51.120;17.024;2024-01-07T05:19:00;100180;;;-4.1;100.0
68320;BME280;55168;51.120;17.024;2024-01-07T05:20:00;100180;;;-4.1;100.0
68320;BME280;55168;51.120;17.024;2024-01-07T05:21:00;100170;;;-4.1;100.0
68320;BME280;55168;51.120;17.024;2024-01-07T05:22:00;100170;;;-4.1;100.0
68320;BME280;55168;51.120;17.024;2024-01-07T05:23:00;100170;;;-4.1;100.0
68320;BME280;55168;51.120;17.024;2024-01-07T05:24:00;100170;;;-4.1;100.0
68320;BME280;55168;51.120;17.024;2024-01-07T05:25:00;100160;;;-4.1;100.0
68320;BME280;55168;51.120;17.024;2024-01-07T05:26:00;100170;;;-4.1;100.0